Port Alexander, Alaska
Current Conditions -  °F | °C
As of 1:16 PM on Thursday 23 Oct 2014 (Local Time) from PAFE Reporting Station
Scattered Clouds Scattered Clouds  
Wind Chill: 46°   Ceiling: Unl
Heat Index: 48°   Visibility: 10mi
Dew Point: 41°   Wind: 6mph
Humidity: 76%   Direction: 160°SSE
Pressure: 29.64"   Gusts: NA
Location:  56.25°N, 134.65°W
Report Text: PAFE 232116Z AUTO 16005KT 10SM FEW019 SCT049 09/05 A2964 RMK AO1
Loading
Personal Weather Stations






























Interactive Weather Map
Tropical Storm Tracking
New forecast layout! Learn more

10-Day Weather Forecast

Advertisements
Track Severe Weather on mobile